Time;durP1;ratioP1;P1;durP2;ratioP2;P2;SDS_P1;SDS_P2;PMS_P1;PMS_P2;Temp;Humidity;BMP_temperature;BMP_pressure;BME280_temperature;BME280_humidity;BME280_pressure;Samples;Min_cycle;Max_cycle;Signal;HPM_P1;HPM_P2
2023/07/03 00:00:00;;;;;;;8.98;3.20;;;;;;;14.38;100.00;99960.66;4956940;28;20229;-74
2023/07/03 00:02:27;;;;;;;11.25;3.58;;;;;;;14.32;100.00;99970.50;4952247;28;20228;-75
2023/07/03 00:04:54;;;;;;;6.40;2.47;;;;;;;14.29;100.00;99979.38;4959468;28;20225;-75
2023/07/03 00:07:21;;;;;;;8.30;3.05;;;;;;;14.22;100.00;99991.00;4952954;28;20816;-74
2023/07/03 00:09:47;;;;;;;2.42;1.52;;;;;;;14.19;100.00;99996.34;4959541;28;20236;-74
2023/07/03 00:12:14;;;;;;;9.57;3.42;;;;;;;14.23;100.00;100006.06;4948591;28;20221;-76
2023/07/03 00:14:41;;;;;;;10.52;3.53;;;;;;;14.20;100.00;100019.38;4958665;28;20603;-77
2023/07/03 00:17:07;;;;;;;6.03;2.53;;;;;;;14.15;100.00;100013.25;4956563;28;20252;-76
2023/07/03 00:19:34;;;;;;;6.43;3.05;;;;;;;14.01;100.00;100016.06;4953269;28;20232;-77
2023/07/03 00:22:02;;;;;;;5.03;2.10;;;;;;;14.13;100.00;100032.78;4952810;28;20234;-74
2023/07/03 00:24:31;;;;;;;7.68;2.78;;;;;;;14.03;100.00;100037.31;4946532;28;20284;-74
2023/07/03 00:26:58;;;;;;;7.03;2.40;;;;;;;14.05;100.00;100048.81;4954438;28;20221;-74
2023/07/03 00:29:28;;;;;;;11.75;3.78;;;;;;;14.26;100.00;100063.66;4947472;28;20240;-76
2023/07/03 00:31:55;;;;;;;5.65;2.38;;;;;;;13.90;100.00;100047.22;4955766;28;20237;-75
2023/07/03 00:34:22;;;;;;;9.10;3.33;;;;;;;13.94;100.00;100053.38;4955313;28;20233;-74
2023/07/03 00:36:49;;;;;;;5.38;2.47;;;;;;;14.01;100.00;100063.03;4950470;28;20222;-75
2023/07/03 00:39:15;;;;;;;8.38;3.20;;;;;;;13.96;100.00;100064.88;4945896;28;20222;-76
2023/07/03 00:41:42;;;;;;;6.13;2.60;;;;;;;13.83;100.00;100069.44;4955585;28;20251;-76
2023/07/03 00:44:11;;;;;;;6.80;2.78;;;;;;;13.73;100.00;100066.00;4952507;28;20300;-76
2023/07/03 00:46:39;;;;;;;8.23;3.08;;;;;;;13.82;100.00;100082.75;4938638;28;20240;-77
2023/07/03 00:49:09;;;;;;;7.85;2.88;;;;;;;13.82;100.00;100077.44;4943572;28;20239;-74
2023/07/03 00:51:40;;;;;;;0.20;0.20;;;;;;;13.91;100.00;100094.16;4937346;28;20236;-74
2023/07/03 00:54:07;;;;;;;0.10;0.10;;;;;;;13.91;100.00;100087.97;4938543;28;20237;-74
2023/07/03 00:56:34;;;;;;;0.10;0.10;;;;;;;13.86;100.00;100095.09;4949022;28;20240;-74
2023/07/03 00:59:02;;;;;;;0.93;0.57;;;;;;;13.82;100.00;100099.56;4961447;28;20225;-74
2023/07/03 01:01:39;;;;;;;0.10;0.10;;;;;;;13.86;100.00;100111.06;4938928;28;23527;-75
2023/07/03 01:04:13;;;;;;;0.25;0.25;;;;;;;13.82;100.00;100104.88;4941964;28;20241;-76
2023/07/03 01:06:46;;;;;;;1.00;0.45;;;;;;;13.59;100.00;100091.81;4956255;28;20216;-77
2023/07/03 01:09:16;;;;;;;0.22;0.22;;;;;;;13.48;100.00;100098.97;4935397;28;20234;-76
2023/07/03 01:11:44;;;;;;;0.30;0.30;;;;;;;13.40;100.00;100099.06;4960845;28;20245;-77
2023/07/03 01:14:12;;;;;;;0.15;0.15;;;;;;;13.41;100.00;100113.22;4920715;28;20543;-75
2023/07/03 01:16:39;;;;;;;0.17;0.17;;;;;;;13.40;100.00;100128.25;4942334;28;20230;-74
2023/07/03 01:19:12;;;;;;;0.45;0.45;;;;;;;13.34;100.00;100122.13;4938909;28;20321;-77
2023/07/03 01:22:02;;;;;;;0.22;0.22;;;;;;;13.35;100.00;100134.50;4950775;28;20249;-76
2023/07/03 01:24:34;;;;;;;0.60;0.60;;;;;;;13.23;100.00;100148.75;4953849;28;22281;-76
2023/07/03 01:27:03;;;;;;;0.15;0.15;;;;;;;13.26;100.00;100159.34;4957558;28;20587;-74
2023/07/03 01:29:31;;;;;;;0.20;0.20;;;;;;;13.28;100.00;100159.34;4942287;28;20233;-76
2023/07/03 01:31:58;;;;;;;0.30;0.30;;;;;;;13.24;100.00;100165.56;4940671;28;20259;-74
2023/07/03 01:34:26;;;;;;;0.40;0.40;;;;;;;13.19;100.00;100157.63;4942484;28;20229;-74
2023/07/03 01:36:55;;;;;;;0.20;0.20;;;;;;;13.25;100.00;100170.88;4942702;28;20221;-77
2023/07/03 01:39:21;;;;;;;0.30;0.30;;;;;;;13.16;100.00;100181.50;4938214;28;20234;-77
2023/07/03 01:41:49;;;;;;;0.30;0.30;;;;;;;13.20;100.00;100177.97;4942580;28;20284;-74
2023/07/03 01:44:15;;;;;;;0.40;0.40;;;;;;;13.14;100.00;100177.97;4941402;28;20229;-74
2023/07/03 01:46:42;;;;;;;0.20;0.20;;;;;;;13.17;100.00;100182.41;4953641;28;20225;-74
2023/07/03 01:49:15;;;;;;;0.50;0.50;;;;;;;12.97;100.00;100183.34;4953050;28;20230;-74
2023/07/03 01:52:05;;;;;;;0.20;0.20;;;;;;;12.99;100.00;100186.88;4953678;28;20229;-76
2023/07/03 01:54:51;;;;;;;0.20;0.20;;;;;;;13.08;100.00;100200.13;4935989;28;20240;-74
2023/07/03 01:57:31;;;;;;;0.25;0.25;;;;;;;13.08;100.00;100202.78;4952816;28;20237;-74
2023/07/03 02:00:00;;;;;;;0.20;0.20;;;;;;;13.23;100.00;100209.81;4940489;28;20280;-74
2023/07/03 02:02:29;;;;;;;0.52;0.43;;;;;;;13.20;100.00;100215.16;4937497;28;20228;-74
2023/07/03 02:05:02;;;;;;;0.50;0.50;;;;;;;13.17;100.00;100207.19;4946547;28;20233;-74
2023/07/03 02:07:30;;;;;;;0.30;0.30;;;;;;;13.25;100.00;100223.09;4933490;28;20241;-74
2023/07/03 02:09:57;;;;;;;0.20;0.20;;;;;;;13.10;100.00;100227.56;4958851;28;20237;-75
2023/07/03 02:12:24;;;;;;;0.20;0.20;;;;;;;13.00;100.00;100215.22;4938658;28;20244;-75
2023/07/03 02:14:51;;;;;;;0.10;0.10;;;;;;;13.04;100.00;100232.88;4955865;28;20241;-74
2023/07/03 02:17:17;;;;;;;0.28;0.28;;;;;;;13.04;100.00;100232.00;4951087;28;20232;-74
2023/07/03 02:19:44;;;;;;;0.22;0.22;;;;;;;13.07;100.00;100232.00;4960646;28;20237;-74
2023/07/03 02:22:11;;;;;;;0.10;0.10;;;;;;;12.96;100.00;100239.97;4949848;28;20234;-74
2023/07/03 02:24:37;;;;;;;0.10;0.10;;;;;;;12.94;100.00;100251.47;4965001;28;20236;-76
2023/07/03 02:27:04;;;;;;;0.10;0.10;;;;;;;12.97;100.00;100262.97;4942656;28;20284;-76
2023/07/03 02:29:31;;;;;;;0.10;0.10;;;;;;;13.06;100.00;100265.63;4955493;28;20242;-77
2023/07/03 02:31:58;;;;;;;0.22;0.22;;;;;;;12.94;100.00;100275.38;4959776;28;20229;-77
2023/07/03 02:34:24;;;;;;;0.40;0.40;;;;;;;13.02;100.00;100282.44;4955351;28;20315;-78
2023/07/03 02:36:53;;;;;;;0.20;0.20;;;;;;;13.32;100.00;100293.88;4955081;28;20226;-77
2023/07/03 02:39:19;;;;;;;0.47;0.47;;;;;;;13.90;100.00;100294.44;4956424;28;20284;-76
2023/07/03 02:41:46;;;;;;;0.10;0.10;;;;;;;14.28;100.00;100269.31;4963235;28;20240;-78
2023/07/03 02:44:12;;;;;;;0.15;0.15;;;;;;;14.51;100.00;100247.88;4938127;28;20225;-79
2023/07/03 02:46:41;;;;;;;0.30;0.30;;;;;;;14.66;100.00;100226.44;4964569;28;20606;-79
2023/07/03 02:49:08;;;;;;;1.30;0.95;;;;;;;14.88;100.00;100205.78;4962760;28;20224;-75
2023/07/03 02:51:35;;;;;;;0.10;0.10;;;;;;;15.16;100.00;100193.88;4952662;28;20233;-77
2023/07/03 02:54:04;;;;;;;0.20;0.20;;;;;;;15.30;100.00;100175.03;4962477;28;20226;-76
2023/07/03 02:56:31;;;;;;;0.20;0.20;;;;;;;15.46;100.00;100157.91;4951298;28;20246;-76
2023/07/03 02:58:57;;;;;;;0.20;0.20;;;;;;;15.59;100.00;100130.19;4960233;28;20269;-79
2023/07/03 03:01:24;;;;;;;0.20;0.20;;;;;;;15.63;100.00;100115.06;4951011;28;20241;-79
2023/07/03 03:03:51;;;;;;;0.10;0.10;;;;;;;15.76;100.00;100095.28;4956681;28;20288;-74
2023/07/03 03:06:18;;;;;;;0.30;0.30;;;;;;;15.82;100.00;100084.50;4952673;28;20301;-74
2023/07/03 03:08:45;;;;;;;0.15;0.15;;;;;;;15.92;100.00;100062.09;4953670;28;20272;-76
2023/07/03 03:11:13;;;;;;;0.15;0.15;;;;;;;16.03;100.00;100055.69;4955723;28;20225;-74
2023/07/03 03:13:41;;;;;;;0.20;0.20;;;;;;;15.99;100.00;100050.41;4958692;28;20235;-77
2023/07/03 03:16:08;;;;;;;1.38;0.55;;;;;;;16.08;100.00;100043.13;4956215;28;20224;-75
2023/07/03 03:18:34;;;;;;;0.20;0.20;;;;;;;16.05;100.00;100041.41;4948353;28;20255;-75
2023/07/03 03:21:01;;;;;;;1.05;0.95;;;;;;;16.14;100.00;100029.69;4963523;28;20238;-74
2023/07/03 03:23:28;;;;;;;0.57;0.52;;;;;;;16.19;100.00;100035.81;4954047;28;20221;-77
2023/07/03 03:25:54;;;;;;;1.38;0.65;;;;;;;16.19;100.00;100019.78;4958013;28;20267;-77
2023/07/03 03:28:21;;;;;;;0.20;0.20;;;;;;;16.33;100.00;100002.59;4949524;28;20221;-76
2023/07/03 03:30:48;;;;;;;0.20;0.20;;;;;;;16.23;100.00;100001.03;4956999;28;20241;-83
2023/07/03 03:33:15;;;;;;;0.50;0.50;;;;;;;16.28;100.00;100004.47;4960999;28;20233;-77
2023/07/03 03:35:41;;;;;;;0.10;0.10;;;;;;;16.26;100.00;99995.63;4952045;28;20251;-77
2023/07/03 03:38:08;;;;;;;0.40;0.40;;;;;;;16.29;100.00;99998.22;4965060;28;20232;-77
2023/07/03 03:40:35;;;;;;;0.95;0.60;;;;;;;16.26;100.00;100006.28;4960808;28;20308;-77
2023/07/03 03:43:02;;;;;;;1.00;0.95;;;;;;;16.23;100.00;99994.81;4959255;28;20328;-77
2023/07/03 03:45:29;;;;;;;2.85;1.88;;;;;;;16.28;100.00;99984.91;4953258;28;20233;-76
2023/07/03 03:47:56;;;;;;;0.30;0.30;;;;;;;16.30;100.00;99983.97;4936913;28;20235;-75
2023/07/03 03:50:22;;;;;;;0.82;0.82;;;;;;;16.44;100.00;99994.34;4950984;28;20243;-75
2023/07/03 03:52:49;;;;;;;0.30;0.30;;;;;;;16.38;100.00;99989.16;4938497;28;20232;-75
2023/07/03 03:55:16;;;;;;;1.00;1.00;;;;;;;16.32;100.00;99989.28;4950668;28;20664;-77
2023/07/03 03:57:42;;;;;;;0.43;0.43;;;;;;;16.35;100.00;99991.88;4954774;28;20229;-75
2023/07/03 04:00:20;;;;;;;0.10;0.10;;;;;;;16.33;100.00;99991.03;4934463;28;20225;-78
2023/07/03 04:02:48;;;;;;;0.20;0.20;;;;;;;16.31;100.00;99991.06;4952865;28;20232;-79
2023/07/03 04:05:15;;;;;;;0.77;0.77;;;;;;;16.33;100.00;99989.25;4954495;28;20260;-79
2023/07/03 04:07:42;;;;;;;0.88;0.80;;;;;;;16.27;100.00;99985.84;4959008;28;20243;-78
2023/07/03 04:10:10;;;;;;;0.10;0.10;;;;;;;16.28;100.00;99999.13;4953085;28;20305;-77
2023/07/03 04:12:37;;;;;;;0.10;0.10;;;;;;;16.27;100.00;99996.50;4955200;28;20236;-78
2023/07/03 04:15:04;;;;;;;0.40;0.40;;;;;;;16.29;100.00;99984.00;4958790;28;20807;-79
2023/07/03 04:17:31;;;;;;;0.20;0.20;;;;;;;16.28;100.00;99993.81;4931760;28;20281;-83
2023/07/03 04:19:58;;;;;;;0.73;0.73;;;;;;;16.30;100.00;99994.66;4963097;28;20229;-79
2023/07/03 04:22:26;;;;;;;2.90;2.63;;;;;;;16.30;100.00;99994.66;4954277;28;20316;-79
2023/07/03 04:24:56;;;;;;;0.25;0.25;;;;;;;16.33;100.00;99991.91;4943061;28;20814;-78
2023/07/03 04:27:23;;;;;;;0.90;0.90;;;;;;;16.31;100.00;99988.41;4949346;28;20221;-77
2023/07/03 04:29:49;;;;;;;0.20;0.20;;;;;;;16.30;100.00;99991.09;4969641;28;20241;-78
2023/07/03 04:32:16;;;;;;;2.55;2.40;;;;;;;16.36;100.00;99982.09;4949807;28;20236;-79
2023/07/03 04:34:43;;;;;;;0.43;0.35;;;;;;;16.37;100.00;99982.06;4966562;28;20225;-79
2023/07/03 04:37:09;;;;;;;0.10;0.10;;;;;;;16.34;100.00;100003.47;4944956;28;20228;-79
2023/07/03 04:39:36;;;;;;;0.50;0.50;;;;;;;16.31;100.00;100012.41;4957479;28;20244;-80
2023/07/03 04:42:03;;;;;;;0.17;0.17;;;;;;;16.35;100.00;99999.88;4965972;28;20233;-80
2023/07/03 04:44:33;;;;;;;0.63;0.45;;;;;;;16.38;100.00;99997.16;4958588;28;20241;-80
2023/07/03 04:47:04;;;;;;;0.90;0.90;;;;;;;16.39;100.00;100020.25;4959726;28;20236;-79
2023/07/03 04:49:34;;;;;;;0.17;0.17;;;;;;;16.44;100.00;100013.03;4957859;28;20244;-80
2023/07/03 04:52:01;;;;;;;0.10;0.10;;;;;;;16.46;100.00;100018.34;4962521;28;20239;-80
2023/07/03 04:54:28;;;;;;;0.52;0.47;;;;;;;16.49;100.00;100003.13;4960143;28;20221;-79
2023/07/03 04:56:56;;;;;;;0.20;0.20;;;;;;;16.52;100.00;100012.88;4964316;28;20311;-80
2023/07/03 04:59:23;;;;;;;0.43;0.43;;;;;;;16.49;100.00;100023.59;4961974;28;20244;-80
2023/07/03 05:01:50;;;;;;;0.17;0.17;;;;;;;16.54;100.00;100019.03;4990326;23;20237;-77
2023/07/03 05:04:16;;;;;;;0.55;0.55;;;;;;;16.57;100.00;100016.31;4963845;28;20247;-75
2023/07/03 05:06:43;;;;;;;0.65;0.65;;;;;;;16.57;100.00;100033.19;4977006;28;20235;-75
2023/07/03 05:09:10;;;;;;;0.30;0.30;;;;;;;16.60;100.00;100021.59;4980200;28;20618;-75
2023/07/03 05:11:37;;;;;;;0.43;0.43;;;;;;;16.62;100.00;100031.31;4978272;28;20221;-75
2023/07/03 05:14:03;;;;;;;0.50;0.50;;;;;;;16.68;100.00;100026.78;4972158;28;20225;-75
2023/07/03 05:16:30;;;;;;;0.43;0.40;;;;;;;16.69;100.00;100040.09;4970748;28;20280;-73
2023/07/03 05:18:57;;;;;;;1.10;0.93;;;;;;;16.69;100.00;100034.75;4982785;28;20298;-75
2023/07/03 05:21:23;;;;;;;1.10;1.00;;;;;;;16.73;100.00;100048.91;4978563;28;20239;-73
2023/07/03 05:23:50;;;;;;;0.68;0.68;;;;;;;16.77;100.00;100043.47;4974224;28;20228;-74
2023/07/03 05:26:18;;;;;;;0.88;0.80;;;;;;;16.79;100.00;100043.44;4975512;28;20587;-75
2023/07/03 05:28:44;;;;;;;0.30;0.30;;;;;;;16.81;100.00;100049.63;4988832;28;20315;-75
2023/07/03 05:31:11;;;;;;;0.43;0.43;;;;;;;16.81;100.00;100031.81;4980678;28;20227;-76
2023/07/03 05:33:38;;;;;;;0.88;0.88;;;;;;;16.83;100.00;100027.31;4985098;28;20603;-76
2023/07/03 05:36:05;;;;;;;0.40;0.40;;;;;;;16.86;100.00;100037.94;4974527;28;20224;-79
2023/07/03 05:38:33;;;;;;;0.40;0.40;;;;;;;16.84;100.00;100038.88;4977814;28;20248;-79
2023/07/03 05:41:00;;;;;;;0.40;0.40;;;;;;;16.80;100.00;100056.75;4963129;28;20336;-79
2023/07/03 05:43:27;;;;;;;1.00;0.68;;;;;;;16.80;100.00;100058.56;4972748;28;20231;-76
2023/07/03 05:45:53;;;;;;;0.45;0.45;;;;;;;16.80;100.00;100054.09;4976214;28;20228;-76
2023/07/03 05:48:21;;;;;;;3.47;1.13;;;;;;;16.88;100.00;100061.94;4973791;28;20658;-78
2023/07/03 05:50:47;;;;;;;0.50;0.50;;;;;;;16.90;100.00;100054.75;4977186;28;20264;-79
2023/07/03 05:53:14;;;;;;;0.70;0.68;;;;;;;16.85;100.00;100057.53;4972234;28;20247;-78
2023/07/03 05:55:41;;;;;;;0.50;0.50;;;;;;;16.90;100.00;100050.34;4983818;28;20235;-77
2023/07/03 05:58:08;;;;;;;0.80;0.80;;;;;;;16.90;100.00;100046.75;4979859;28;20232;-76
2023/07/03 06:00:34;;;;;;;0.77;0.77;;;;;;;16.90;100.00;100066.34;4971869;28;20240;-76
2023/07/03 06:03:02;;;;;;;0.40;0.40;;;;;;;16.90;100.00;100058.34;4959475;28;20233;-76
2023/07/03 06:05:29;;;;;;;0.60;0.60;;;;;;;16.89;100.00;100074.38;4956130;28;20597;-77
2023/07/03 06:07:56;;;;;;;0.70;0.70;;;;;;;16.92;100.00;100072.53;4942601;28;20229;-76
2023/07/03 06:10:23;;;;;;;0.77;0.77;;;;;;;17.00;100.00;100069.69;4935930;28;20236;-76
2023/07/03 06:12:50;;;;;;;0.60;0.60;;;;;;;17.10;100.00;100081.06;4955378;28;20263;-74
2023/07/03 06:15:17;;;;;;;1.60;0.93;;;;;;;17.13;100.00;100056.94;4952520;28;20228;-75
2023/07/03 06:17:44;;;;;;;0.60;0.60;;;;;;;17.12;100.00;100047.16;4943948;28;20294;-74
2023/07/03 06:20:11;;;;;;;0.30;0.30;;;;;;;17.18;100.00;100044.34;4960624;28;20288;-75
2023/07/03 06:22:42;;;;;;;0.60;0.60;;;;;;;17.25;100.00;100033.47;4948794;28;20246;-74
2023/07/03 06:25:09;;;;;;;0.60;0.60;;;;;;;17.35;100.00;100039.47;4960807;28;20236;-75
2023/07/03 06:27:36;;;;;;;0.47;0.47;;;;;;;17.49;100.00;100034.63;4953142;28;20230;-74
2023/07/03 06:30:03;;;;;;;0.45;0.45;;;;;;;17.57;100.00;99989.88;4955802;28;20233;-74
2023/07/03 06:32:30;;;;;;;0.88;0.77;;;;;;;17.62;100.00;99964.81;4956504;28;20256;-75
2023/07/03 06:34:57;;;;;;;0.47;0.47;;;;;;;17.71;100.00;99954.75;4953632;28;20236;-74
2023/07/03 06:37:23;;;;;;;1.25;0.95;;;;;;;17.80;100.00;99929.56;4951711;28;20276;-74
2023/07/03 06:39:50;;;;;;;0.57;0.43;;;;;;;17.85;100.00;99924.97;4962544;28;20232;-75
2023/07/03 06:42:17;;;;;;;0.90;0.73;;;;;;;17.86;100.00;99879.44;4952705;28;20230;-75
2023/07/03 06:44:43;;;;;;;0.43;0.43;;;;;;;18.00;100.00;99873.69;4957665;28;20239;-75
2023/07/03 06:47:10;;;;;;;0.30;0.30;;;;;;;18.02;100.00;99837.06;4936753;28;20217;-75
2023/07/03 06:49:37;;;;;;;0.80;0.80;;;;;;;18.05;100.00;99801.28;4953767;28;20233;-74
2023/07/03 06:52:04;;;;;;;1.55;0.77;;;;;;;18.12;100.00;99802.84;4953305;28;20252;-74
2023/07/03 06:54:31;;;;;;;0.40;0.40;;;;;;;18.03;100.00;99768.38;4952839;28;21660;-74
2023/07/03 06:56:57;;;;;;;0.50;0.50;;;;;;;18.06;100.00;99753.09;4943995;28;20768;-74
2023/07/03 06:59:24;;;;;;;0.73;0.70;;;;;;;18.14;100.00;99766.22;4950876;28;20287;-74
2023/07/03 07:01:50;;;;;;;0.40;0.40;;;;;;;18.25;100.00;99763.22;4954400;28;20264;-74
2023/07/03 07:04:17;;;;;;;0.75;0.68;;;;;;;18.27;100.00;99764.91;4962465;28;20311;-75
2023/07/03 07:06:44;;;;;;;0.63;0.63;;;;;;;18.23;100.00;99788.25;4978027;28;20268;-75
2023/07/03 07:09:11;;;;;;;0.60;0.55;;;;;;;18.20;100.00;99753.53;4974709;28;20260;-75
2023/07/03 07:11:38;;;;;;;0.40;0.40;;;;;;;18.27;100.00;99767.59;4968612;28;20239;-74
2023/07/03 07:14:05;;;;;;;0.55;0.55;;;;;;;18.36;100.00;99716.44;4976077;28;20311;-74
2023/07/03 07:16:36;;;;;;;0.60;0.60;;;;;;;18.49;100.00;99730.28;4970117;28;20704;-76
2023/07/03 07:21:41;;;;;;;1.58;1.48;;;;;;;18.66;100.00;99695.78;5690436;23;20302;-77
2023/07/03 07:24:20;;;;;;;0.85;0.80;;;;;;;18.73;100.00;99656.25;4965580;28;20217;-77
2023/07/03 07:26:47;;;;;;;0.80;0.80;;;;;;;18.66;100.00;99619.91;4968252;28;20292;-78
2023/07/03 07:29:14;;;;;;;3.47;1.67;;;;;;;18.76;100.00;99619.53;4953284;28;20210;-77
2023/07/03 07:31:41;;;;;;;0.60;0.60;;;;;;;18.99;100.00;99637.41;4848870;28;20305;-77
2023/07/03 07:34:10;;;;;;;0.88;0.88;;;;;;;19.01;100.00;99579.28;4918194;28;20249;-78
2023/07/03 07:36:38;;;;;;;0.80;0.77;;;;;;;19.14;100.00;99619.88;5020630;23;20231;-78
2023/07/03 07:39:06;;;;;;;1.15;1.05;;;;;;;19.22;100.00;99620.44;4993757;28;20951;-78
2023/07/03 07:41:33;;;;;;;1.13;1.02;;;;;;;19.35;100.00;99647.63;4983467;28;20236;-81
2023/07/03 07:44:00;;;;;;;1.00;0.90;;;;;;;19.37;100.00;99614.47;4967295;28;20220;-81
2023/07/03 07:46:30;;;;;;;1.05;0.93;;;;;;;19.27;100.00;99580.91;4942026;28;20254;-80
2023/07/03 07:51:30;;;;;;;0.82;0.65;;;;;;;19.47;100.00;99505.03;4786182;28;20493;-77
2023/07/03 07:53:57;;;;;;;0.35;0.35;;;;;;;19.47;100.00;99503.22;4905412;29;20243;-76
2023/07/03 07:56:26;;;;;;;0.70;0.70;;;;;;;19.59;100.00;99549.31;4906934;29;20227;-75
2023/07/03 07:58:53;;;;;;;0.32;0.32;;;;;;;19.46;100.00;99485.41;4920413;29;20231;-76
2023/07/03 08:01:20;;;;;;;1.45;0.93;;;;;;;19.56;100.00;99464.50;4911679;29;20235;-76
2023/07/03 08:03:47;;;;;;;0.45;0.45;;;;;;;19.77;100.00;99446.59;4919297;29;20238;-75
2023/07/03 08:06:15;;;;;;;1.33;0.88;;;;;;;19.83;100.00;99415.94;4919755;29;20249;-75
2023/07/03 08:08:42;;;;;;;0.90;0.80;;;;;;;19.85;100.00;99431.00;4907061;29;20222;-74
2023/07/03 08:11:10;;;;;;;0.85;0.68;;;;;;;19.63;100.00;99382.81;4915586;29;20230;-76
2023/07/03 08:13:39;;;;;;;0.50;0.50;;;;;;;19.67;100.00;99446.13;4928888;29;20261;-76
2023/07/03 08:16:06;;;;;;;0.40;0.40;;;;;;;19.68;100.00;99421.03;4907924;29;20234;-76
2023/07/03 08:18:33;;;;;;;0.63;0.55;;;;;;;19.75;100.00;99409.09;4909974;29;20231;-74
2023/07/03 08:21:00;;;;;;;0.65;0.65;;;;;;;19.70;100.00;99391.47;4901335;29;20234;-73
2023/07/03 08:23:29;;;;;;;0.50;0.50;;;;;;;19.60;100.00;99377.59;4902414;29;20238;-74
2023/07/03 08:25:57;;;;;;;0.50;0.50;;;;;;;19.56;100.00;99359.91;4915907;29;20234;-74
2023/07/03 08:28:24;;;;;;;1.67;1.15;;;;;;;19.54;100.00;99359.09;4913229;29;20230;-74
2023/07/03 08:30:51;;;;;;;1.38;1.10;;;;;;;19.47;100.00;99358.44;4918649;29;20328;-74
2023/07/03 08:33:17;;;;;;;1.40;1.02;;;;;;;19.42;100.00;99328.28;4916463;29;20238;-74
2023/07/03 08:35:44;;;;;;;0.40;0.40;;;;;;;19.34;100.00;99298.25;4904797;29;20238;-75
2023/07/03 08:38:14;;;;;;;0.70;0.55;;;;;;;19.43;100.00;99326.47;4895398;29;20231;-75
2023/07/03 08:40:42;;;;;;;1.17;0.88;;;;;;;19.53;100.00;99352.00;4913346;29;20224;-76
2023/07/03 08:43:13;;;;;;;0.68;0.65;;;;;;;19.54;100.00;99360.91;4916621;29;20234;-77
2023/07/03 08:45:45;;;;;;;0.75;0.70;;;;;;;19.52;100.00;99358.28;4871075;28;20275;-77
2023/07/03 08:48:25;;;;;;;1.33;1.02;;;;;;;19.38;100.00;99326.66;4869984;29;20239;-77
2023/07/03 08:50:55;;;;;;;2.03;1.42;;;;;;;19.59;100.00;99357.06;4917588;28;20225;-77
2023/07/03 08:53:43;;;;;;;1.65;0.82;;;;;;;19.69;100.00;99382.53;4914468;28;20234;-76
2023/07/03 08:56:14;;;;;;;1.33;0.95;;;;;;;19.79;100.00;99377.63;4926176;29;20241;-76
2023/07/03 08:58:41;;;;;;;2.08;1.92;;;;;;;20.02;100.00;99398.91;4914961;28;20241;-76
2023/07/03 09:01:26;;;;;;;1.33;1.13;;;;;;;20.97;100.00;99464.31;4921826;28;20233;-78
2023/07/03 09:04:07;;;;;;;0.88;0.80;;;;;;;20.87;100.00;99401.19;4926706;28;20240;-77
2023/07/03 09:06:57;;;;;;;1.17;1.08;;;;;;;20.59;100.00;99348.81;4923930;28;20229;-75
2023/07/03 09:09:38;;;;;;;14.38;4.82;;;;;;;20.59;100.00;99361.38;4930416;28;20285;-75
2023/07/03 09:12:15;;;;;;;1.75;1.02;;;;;;;20.41;100.00;99334.47;4931933;28;20238;-76
2023/07/03 09:15:25;;;;;;;2.55;1.25;;;;;;;20.05;100.00;99310.22;4924638;29;20225;-76
2023/07/03 09:17:53;;;;;;;0.63;0.60;;;;;;;19.85;100.00;99309.41;4933637;28;20406;-75
2023/07/03 09:20:22;;;;;;;3.83;1.50;;;;;;;19.78;100.00;99301.66;4931646;28;20236;-76
2023/07/03 09:23:09;;;;;;;0.70;0.60;;;;;;;20.14;100.00;99346.47;4920088;29;20244;-75
2023/07/03 09:25:42;;;;;;;1.50;0.90;;;;;;;19.95;100.00;99340.25;4936489;29;20278;-75
2023/07/03 09:28:09;;;;;;;1.00;0.93;;;;;;;19.95;100.00;99342.94;4939633;28;20221;-75
2023/07/03 09:30:37;;;;;;;1.55;1.00;;;;;;;19.69;100.00;99328.03;4940181;28;20232;-74
2023/07/03 09:33:06;;;;;;;0.77;0.60;;;;;;;19.71;100.00;99353.84;4942285;28;20265;-76
2023/07/03 09:35:35;;;;;;;1.15;0.80;;;;;;;19.79;100.00;99372.28;4931396;28;20233;-75
2023/07/03 09:38:05;;;;;;;1.02;0.93;;;;;;;19.70;100.00;99356.59;4946290;28;20221;-76
2023/07/03 09:40:35;;;;;;;0.52;0.45;;;;;;;19.66;100.00;99363.03;4910024;29;20245;-77
2023/07/03 09:43:13;;;;;;;0.35;0.35;;;;;;;19.71;100.00;99379.78;4942574;29;20237;-76
2023/07/03 09:45:39;;;;;;;0.45;0.45;;;;;;;19.93;100.00;99385.06;4938705;28;20228;-76
2023/07/03 09:48:22;;;;;;;0.32;0.32;;;;;;;20.09;100.00;99375.34;4922832;29;20225;-75
2023/07/03 09:50:49;;;;;;;1.15;0.80;;;;;;;20.33;100.00;99401.03;4894346;29;20240;-76
2023/07/03 09:53:38;;;;;;;0.20;0.20;;;;;;;20.28;100.00;99437.97;4904402;28;20234;-76
2023/07/03 09:56:12;;;;;;;0.80;0.70;;;;;;;20.32;100.00;99436.03;4913058;29;20223;-75
2023/07/03 09:58:44;;;;;;;0.75;0.68;;;;;;;20.47;100.00;99464.00;4918720;29;20237;-76
2023/07/03 10:01:16;;;;;;;1.88;1.00;;;;;;;20.69;100.00;99427.13;4919610;29;20236;-77
2023/07/03 10:04:04;;;;;;;0.60;0.60;;;;;;;20.71;100.00;99441.34;4917688;29;20229;-76
2023/07/03 10:07:01;;;;;;;0.95;0.73;;;;;;;21.44;100.00;99479.94;4896172;29;20281;-77
2023/07/03 10:09:36;;;;;;;1.15;0.80;;;;;;;21.43;100.00;99465.59;4921116;29;20234;-77
2023/07/03 10:12:37;;;;;;;1.15;0.80;;;;;;;21.51;100.00;99484.91;4906141;29;20739;-77
2023/07/03 10:15:08;;;;;;;1.02;0.80;;;;;;;20.89;100.00;99407.38;4908564;29;20244;-76
2023/07/03 10:17:41;;;;;;;0.77;0.70;;;;;;;20.77;100.00;99401.63;4903826;29;20246;-76
2023/07/03 10:20:18;;;;;;;3.75;1.45;;;;;;;21.02;100.00;99411.19;4902693;29;20234;-75
2023/07/03 10:22:49;;;;;;;0.80;0.60;;;;;;;21.09;100.00;99416.19;4911257;29;20237;-77
2023/07/03 10:25:48;;;;;;;3.05;1.50;;;;;;;20.81;100.00;99374.63;4882493;29;20229;-76
2023/07/03 10:28:28;;;;;;;8.48;3.38;;;;;;;20.75;100.00;99376.66;4904521;28;20234;-76
2023/07/03 10:31:00;;;;;;;4.88;1.48;;;;;;;21.69;100.00;99477.72;4892586;29;20238;-78
2023/07/03 10:33:33;;;;;;;42.10;12.70;;;;;;;22.39;100.00;99483.94;4907319;28;20312;-77
2023/07/03 10:36:02;;;;;;;1.58;1.00;;;;;;;22.21;100.00;99440.91;4918775;29;20225;-76
2023/07/03 10:38:46;;;;;;;1.70;1.02;;;;;;;22.22;100.00;99407.63;4898959;29;20241;-77
2023/07/03 10:41:24;;;;;;;32.10;10.18;;;;;;;22.88;100.00;99453.34;4887396;28;20242;-77
2023/07/03 10:43:56;;;;;;;1.50;1.00;;;;;;;22.76;100.00;99388.44;4916497;29;20231;-77
2023/07/03 10:46:32;;;;;;;22.00;6.07;;;;;;;22.64;100.00;99368.47;4916567;29;20241;-76
2023/07/03 10:49:02;;;;;;;1.77;1.15;;;;;;;22.26;100.00;99303.28;4918694;29;20240;-76
2023/07/03 10:51:57;;;;;;;2.25;1.23;;;;;;;22.11;97.77;99235.03;4912592;29;20245;-76
2023/07/03 10:54:31;;;;;;;3.13;1.60;;;;;;;22.43;98.54;99256.53;4916263;29;20249;-75
2023/07/03 10:57:01;;;;;;;1.10;0.80;;;;;;;22.76;96.88;99268.03;4919482;29;20234;-77
2023/07/03 10:59:32;;;;;;;1.10;0.80;;;;;;;23.39;97.88;99319.06;4918973;29;20241;-77
2023/07/03 11:02:36;;;;;;;1.30;0.80;;;;;;;23.55;91.63;99263.25;4905572;29;20249;-77
2023/07/03 11:05:25;;;;;;;0.90;0.70;;;;;;;23.65;87.82;99181.72;4921296;29;20367;-75
2023/07/03 11:08:03;;;;;;;1.95;1.17;;;;;;;23.75;92.53;99217.94;4904371;29;20305;-76
2023/07/03 11:10:54;;;;;;;1.40;0.98;;;;;;;23.10;90.79;99113.19;4919299;29;20260;-75
2023/07/03 11:13:31;;;;;;;2.35;1.15;;;;;;;22.90;92.93;99113.56;4899420;29;20248;-76
2023/07/03 11:16:08;;;;;;;1.52;0.93;;;;;;;22.70;92.94;99070.81;4907139;29;20239;-76
2023/07/03 11:18:59;;;;;;;0.82;0.63;;;;;;;;;;4918163;29;20299;-77
2023/07/03 11:21:58;;;;;;;1.20;0.80;;;;;;;22.64;92.50;99059.44;4909851;29;20242;-76
2023/07/03 11:24:46;;;;;;;1.48;1.00;;;;;;;23.24;95.31;99152.78;4907995;29;20237;-76
2023/07/03 11:27:13;;;;;;;3.22;1.55;;;;;;;23.08;90.59;99080.06;4916577;29;20221;-75
2023/07/03 11:29:43;;;;;;;2.15;1.42;;;;;;;23.02;91.16;99056.19;4919711;29;20278;-75
2023/07/03 11:32:10;;;;;;;12.93;4.07;;;;;;;22.65;88.29;98972.25;4915922;29;20229;-77
2023/07/03 11:34:37;;;;;;;1.40;0.95;;;;;;;22.94;89.30;99018.06;4902296;29;20313;-76
2023/07/03 11:37:39;;;;;;;1.90;1.30;;;;;;;23.92;86.80;99094.38;4886528;28;20236;-76
2023/07/03 11:40:24;;;;;;;2.10;1.25;;;;;;;23.43;85.35;99013.06;4856130;29;20765;-75